Time;durP1;ratioP1;P1;durP2;ratioP2;P2;SDS_P1;SDS_P2;PMS_P1;PMS_P2;Temp;Humidity;BMP_temperature;BMP_pressure;BME280_temperature;BME280_humidity;BME280_pressure;Samples;Min_cycle;Max_cycle;Signal;HPM_P1;HPM_P2
2021/03/27 10:07:04;;;;;;;7.63;1.55;;;17.90;95.90;;;;;;5073676;28;20384;-65
2021/03/27 10:09:42;;;;;;;5.28;1.60;;;18.00;96.40;;;;;;5075011;28;20404;-62
2021/03/27 10:12:14;;;;;;;3.58;1.10;;;18.20;96.50;;;;;;5086156;28;20016;-61
2021/03/27 10:15:07;;;;;;;5.13;1.73;;;18.20;96.50;;;;;;5080428;28;20048;-60
2021/03/27 10:17:41;;;;;;;5.63;1.48;;;18.40;96.30;;;;;;5085019;28;20020;-66
2021/03/27 10:20:28;;;;;;;4.10;1.50;;;18.50;96.70;;;;;;5087834;28;20463;-62
2021/03/27 10:23:04;;;;;;;4.93;1.27;;;18.70;96.00;;;;;;5086057;28;20033;-63
2021/03/27 10:26:20;;;;;;;3.33;1.30;;;18.80;96.00;;;;;;5085179;28;20042;-62
2021/03/27 10:32:20;;;;;;;3.90;1.15;;;19.10;96.70;;;;;;5087157;28;20075;-61
2021/03/27 10:35:13;;;;;;;3.05;1.00;;;19.20;96.00;;;;;;5088274;28;20028;-63
2021/03/27 10:37:48;;;;;;;3.60;1.40;;;19.40;95.80;;;;;;5056379;28;20041;-61
2021/03/27 10:40:34;;;;;;;4.97;1.42;;;19.50;95.90;;;;;;5087447;28;20020;-66
2021/03/27 10:43:18;;;;;;;4.70;1.50;;;19.60;95.50;;;;;;5083070;28;20472;-63
2021/03/27 10:45:49;;;;;;;3.13;1.38;;;19.70;95.50;;;;;;5087417;28;20642;-62
2021/03/27 10:48:24;;;;;;;5.68;1.20;;;19.70;95.50;;;;;;5087977;28;20433;-67
2021/03/27 10:51:11;;;;;;;5.10;1.45;;;19.80;95.60;;;;;;5086132;28;20153;-67
2021/03/27 10:53:36;;;;;;;4.65;1.30;;;19.90;95.80;;;;;;5088001;28;20507;-63
2021/03/27 10:56:30;;;;;;;3.88;1.20;;;19.90;95.90;;;;;;5078446;28;20016;-59
2021/03/27 10:59:11;;;;;;;4.82;1.50;;;20.10;95.90;;;;;;5077190;28;20078;-62
2021/03/27 11:02:11;;;;;;;4.97;1.20;;;20.20;95.90;;;;;;5087118;28;20024;-62
2021/03/27 11:04:57;;;;;;;4.90;1.40;;;20.30;95.80;;;;;;5081674;28;20048;-66
2021/03/27 11:07:52;;;;;;;3.80;1.25;;;20.40;95.50;;;;;;5086858;28;20016;-65
2021/03/27 11:10:56;;;;;;;3.45;1.05;;;20.40;95.40;;;;;;5087536;28;20472;-67
2021/03/27 11:13:30;;;;;;;5.55;1.10;;;20.40;95.50;;;;;;5078240;28;20068;-61
2021/03/27 11:16:15;;;;;;;3.97;1.50;;;20.40;95.30;;;;;;5072508;28;20013;-60
2021/03/27 11:19:02;;;;;;;4.68;1.40;;;20.30;95.30;;;;;;5070653;28;20040;-60
2021/03/27 11:21:40;;;;;;;3.83;1.25;;;20.30;95.20;;;;;;5073062;28;20745;-60
2021/03/27 11:24:08;;;;;;;5.20;1.55;;;20.30;96.00;;;;;;5074928;28;20025;-60
2021/03/27 11:26:44;;;;;;;5.22;1.50;;;20.30;95.90;;;;;;5057787;28;20078;-64
2021/03/27 11:29:42;;;;;;;4.05;1.30;;;20.30;95.60;;;;;;5059478;28;20020;-59
2021/03/27 11:32:08;;;;;;;2.95;1.08;;;20.30;95.60;;;;;;5063605;28;20020;-64
2021/03/27 11:35:01;;;;;;;2.03;1.00;;;20.30;95.20;;;;;;5074516;28;20041;-65
2021/03/27 11:38:07;;;;;;;3.42;1.13;;;20.20;95.30;;;;;;5054559;28;20032;-61
2021/03/27 11:40:54;;;;;;;3.45;1.38;;;20.20;95.20;;;;;;5062874;28;20024;-66
2021/03/27 11:43:51;;;;;;;5.45;1.30;;;20.20;95.00;;;;;;5074056;28;20017;-60
2021/03/27 11:46:31;;;;;;;3.95;1.10;;;20.10;94.90;;;;;;5074242;28;20055;-62
2021/03/27 11:49:14;;;;;;;6.70;1.70;;;20.20;94.90;;;;;;5074311;28;20032;-66
2021/03/27 11:51:47;;;;;;;4.30;1.20;;;20.20;94.80;;;;;;5073941;28;20488;-63
2021/03/27 11:54:41;;;;;;;4.57;1.40;;;20.20;94.90;;;;;;5073665;28;20060;-66
2021/03/27 11:57:28;;;;;;;4.13;1.40;;;20.30;94.50;;;;;;5064635;28;20060;-66
2021/03/27 12:03:27;;;;;;;4.75;1.30;;;20.20;94.80;;;;;;5073082;28;20036;-61
2021/03/27 12:06:02;;;;;;;5.07;1.40;;;20.10;94.60;;;;;;5073666;28;20055;-63
2021/03/27 12:08:43;;;;;;;4.10;1.73;;;20.20;94.40;;;;;;5073357;28;20071;-65
2021/03/27 12:11:35;;;;;;;6.10;1.58;;;20.20;94.50;;;;;;5073059;28;20103;-62
2021/03/27 12:14:24;;;;;;;4.85;1.60;;;20.20;94.60;;;;;;5072063;28;20388;-65
2021/03/27 12:17:19;;;;;;;7.22;1.67;;;20.20;94.50;;;;;;5073560;28;20094;-68
2021/03/27 12:19:53;;;;;;;6.55;2.08;;;20.20;94.40;;;;;;5073232;28;20042;-62
2021/03/27 12:22:45;;;;;;;8.95;2.00;;;20.20;94.50;;;;;;5073741;28;20028;-64
2021/03/27 12:25:31;;;;;;;7.65;2.08;;;20.30;94.80;;;;;;5073630;28;20472;-62
2021/03/27 12:28:13;;;;;;;4.63;1.73;;;20.20;94.50;;;;;;5072564;28;20025;-65
2021/03/27 12:30:55;;;;;;;4.22;1.58;;;20.20;94.50;;;;;;5073774;28;20104;-67
2021/03/27 12:33:54;;;;;;;7.50;1.70;;;20.20;94.50;;;;;;5064827;28;20031;-63
2021/03/27 12:36:28;;;;;;;7.15;1.83;;;20.20;94.60;;;;;;5044501;28;20049;-63
2021/03/27 12:38:59;;;;;;;;;;;20.30;94.60;;;;;;5072290;28;20049;-63
2021/03/27 12:41:39;;;;;;;5.85;1.88;;;20.30;94.50;;;;;;5072878;28;19977;-67
2021/03/27 12:44:07;;;;;;;5.47;1.77;;;20.30;94.50;;;;;;5063772;28;20024;-68
2021/03/27 12:46:38;;;;;;;8.50;1.70;;;20.30;94.40;;;;;;5072186;28;20028;-69
2021/03/27 12:49:22;;;;;;;5.45;1.70;;;20.30;94.50;;;;;;5072914;28;20077;-70
2021/03/27 12:52:10;;;;;;;5.00;1.55;;;20.30;94.40;;;;;;5052615;28;20021;-65
2021/03/27 12:55:01;;;;;;;5.57;1.45;;;20.30;94.40;;;;;;5071632;28;20058;-65
2021/03/27 12:57:41;;;;;;;6.75;2.10;;;20.30;94.20;;;;;;5051020;28;20041;-66
2021/03/27 13:00:26;;;;;;;5.13;1.58;;;20.20;94.20;;;;;;5071842;28;20112;-62
2021/03/27 13:03:19;;;;;;;5.68;1.38;;;20.20;94.20;;;;;;5072706;28;20452;-63
2021/03/27 13:06:25;;;;;;;5.18;1.40;;;20.20;94.20;;;;;;5072300;28;20035;-67
2021/03/27 13:09:11;;;;;;;4.82;1.52;;;20.20;94.40;;;;;;5069500;28;20036;-68
2021/03/27 13:11:48;;;;;;;3.13;1.30;;;20.30;94.00;;;;;;5072439;28;20077;-67
2021/03/27 13:14:38;;;;;;;3.95;1.25;;;20.30;94.30;;;;;;5072469;28;20492;-62
2021/03/27 13:17:27;;;;;;;6.85;1.60;;;20.40;94.00;;;;;;5072513;28;20067;-67
2021/03/27 13:19:58;;;;;;;3.95;1.35;;;20.50;93.80;;;;;;5071819;28;20019;-61
2021/03/27 13:22:42;;;;;;;5.03;1.40;;;20.50;93.80;;;;;;5072366;28;20028;-64
2021/03/27 13:25:19;;;;;;;5.35;1.33;;;20.60;93.70;;;;;;5072164;28;20468;-65
2021/03/27 13:27:58;;;;;;;3.50;1.30;;;20.60;93.70;;;;;;5072762;28;20029;-65
2021/03/27 13:30:32;;;;;;;4.47;1.30;;;20.70;93.90;;;;;;5052141;28;20557;-62
2021/03/27 13:33:09;;;;;;;3.42;1.20;;;20.70;93.60;;;;;;5072083;28;20498;-61
2021/03/27 13:36:21;;;;;;;3.92;1.45;;;20.70;93.40;;;;;;5069902;28;20480;-68
2021/03/27 13:39:03;;;;;;;4.05;1.40;;;20.70;93.20;;;;;;5065983;28;20032;-68
2021/03/27 13:41:38;;;;;;;4.05;1.33;;;20.70;93.10;;;;;;5072387;28;20024;-68
2021/03/27 13:44:31;;;;;;;3.50;1.35;;;20.70;93.00;;;;;;5072004;28;20020;-64
2021/03/27 13:47:11;;;;;;;4.20;1.40;;;20.70;93.00;;;;;;5073427;28;20016;-65
2021/03/27 13:50:21;;;;;;;6.45;1.42;;;20.70;93.20;;;;;;5071937;28;20051;-65
2021/03/27 13:52:57;;;;;;;9.40;1.80;;;20.70;93.40;;;;;;5040680;28;20396;-64
2021/03/27 13:55:41;;;;;;;4.78;1.30;;;20.70;93.40;;;;;;5056033;28;20480;-61
2021/03/27 13:58:21;;;;;;;5.07;1.50;;;20.70;93.70;;;;;;5066366;28;20024;-61
2021/03/27 14:01:12;;;;;;;4.68;1.50;;;20.70;93.70;;;;;;5070337;28;20028;-59
2021/03/27 14:03:56;;;;;;;3.22;1.25;;;20.70;93.90;;;;;;5069042;28;20128;-68
2021/03/27 14:06:39;;;;;;;6.50;1.52;;;20.70;93.80;;;;;;5070469;28;20039;-64
2021/03/27 14:09:33;;;;;;;5.37;1.37;;;20.70;94.10;;;;;;5071449;28;20223;-67
2021/03/27 14:12:38;;;;;;;4.25;1.48;;;20.70;94.20;;;;;;5068437;28;20029;-67
2021/03/27 14:15:04;;;;;;;3.83;1.30;;;20.60;94.30;;;;;;5069194;28;20025;-67
2021/03/27 14:17:56;;;;;;;6.18;1.55;;;20.70;94.40;;;;;;5070203;28;20542;-62
2021/03/27 14:20:42;;;;;;;5.28;1.42;;;20.60;94.20;;;;;;5068213;28;20083;-63
2021/03/27 14:23:22;;;;;;;4.20;1.20;;;20.60;94.10;;;;;;5067831;28;20032;-69
2021/03/27 14:26:32;;;;;;;5.00;1.55;;;20.50;94.20;;;;;;5070032;28;20027;-64
2021/03/27 14:29:17;;;;;;;3.75;1.20;;;20.50;93.80;;;;;;5033717;28;20042;-64
2021/03/27 14:32:00;;;;;;;4.40;1.50;;;20.50;93.90;;;;;;5070442;28;20005;-64
2021/03/27 14:34:51;;;;;;;4.15;1.38;;;20.50;93.70;;;;;;5071482;28;20077;-67
2021/03/27 14:37:42;;;;;;;4.57;1.33;;;20.50;93.80;;;;;;5071522;28;20033;-61
2021/03/27 14:40:33;;;;;;;5.00;1.73;;;20.50;93.90;;;;;;5071348;28;20024;-60
2021/03/27 14:43:13;;;;;;;4.82;1.48;;;20.50;93.50;;;;;;5069860;28;20078;-62
2021/03/27 14:46:19;;;;;;;2.88;1.20;;;20.40;93.50;;;;;;5069845;28;20018;-65
2021/03/27 14:48:59;;;;;;;6.10;1.23;;;20.40;93.70;;;;;;5070782;28;20024;-62
2021/03/27 14:51:34;;;;;;;6.18;1.58;;;20.40;93.90;;;;;;5070720;28;20017;-67
2021/03/27 14:54:20;;;;;;;5.13;1.40;;;20.40;93.90;;;;;;5072933;28;20054;-63
2021/03/27 14:56:58;;;;;;;4.90;1.35;;;20.50;93.80;;;;;;5073896;28;20051;-64
2021/03/27 14:59:30;;;;;;;5.43;1.50;;;20.50;93.40;;;;;;5074438;28;20020;-67
2021/03/27 15:02:36;;;;;;;4.45;1.42;;;20.40;93.70;;;;;;5074571;28;20103;-65
2021/03/27 15:05:12;;;;;;;4.15;1.40;;;20.30;93.80;;;;;;5071115;28;20040;-65
2021/03/27 15:07:41;;;;;;;2.65;1.23;;;20.30;93.60;;;;;;5073607;28;20028;-64
2021/03/27 15:10:40;;;;;;;4.47;1.38;;;20.30;93.60;;;;;;5071546;28;20534;-63
2021/03/27 15:13:26;;;;;;;5.47;1.60;;;20.20;93.60;;;;;;5074265;28;20023;-61
2021/03/27 15:16:02;;;;;;;4.78;1.50;;;20.20;93.50;;;;;;5072050;28;20056;-61
2021/03/27 15:18:42;;;;;;;4.60;1.65;;;20.20;93.40;;;;;;5071512;28;20016;-62
2021/03/27 15:21:13;;;;;;;3.30;1.40;;;20.20;93.80;;;;;;5070745;28;20476;-63
2021/03/27 15:23:49;;;;;;;3.80;1.40;;;20.20;93.30;;;;;;5074127;28;20051;-61
2021/03/27 15:29:30;;;;;;;;;;;20.10;93.30;;;;;;5074823;28;20032;-60
2021/03/27 15:32:01;;;;;;;3.25;1.23;;;20.10;93.20;;;;;;5072311;28;19904;-62
2021/03/27 15:34:46;;;;;;;3.55;1.50;;;20.10;93.20;;;;;;5071262;28;20020;-65
2021/03/27 15:37:38;;;;;;;5.30;1.65;;;20.00;93.20;;;;;;5071785;28;20031;-62
2021/03/27 15:40:16;;;;;;;3.72;1.30;;;20.00;93.20;;;;;;5070495;28;20047;-63
2021/03/27 15:42:49;;;;;;;6.28;1.48;;;20.00;93.20;;;;;;5073793;28;20021;-62
2021/03/27 15:45:40;;;;;;;5.30;1.65;;;20.00;93.20;;;;;;5069243;28;20025;-65
2021/03/27 15:48:22;;;;;;;4.10;1.33;;;19.90;93.10;;;;;;5071236;28;20013;-66
2021/03/27 15:51:19;;;;;;;4.25;1.40;;;19.90;93.10;;;;;;5067219;28;20021;-61
2021/03/27 15:54:10;;;;;;;3.97;1.45;;;19.90;93.10;;;;;;5067488;28;20485;-63
2021/03/27 15:56:41;;;;;;;6.32;1.30;;;19.90;93.00;;;;;;5067540;28;20029;-59
2021/03/27 15:59:18;;;;;;;5.50;1.23;;;19.90;93.20;;;;;;5070568;28;20032;-62
2021/03/27 16:01:55;;;;;;;4.18;1.33;;;19.90;93.30;;;;;;5073500;28;20025;-67
2021/03/27 16:04:48;;;;;;;5.47;1.60;;;19.90;93.10;;;;;;5072938;28;20062;-60
2021/03/27 16:07:19;;;;;;;7.40;1.55;;;19.90;93.30;;;;;;5073994;28;20507;-72
2021/03/27 16:10:02;;;;;;;3.25;1.10;;;19.80;93.60;;;;;;5068678;28;20037;-66
2021/03/27 16:12:59;;;;;;;5.10;1.45;;;19.70;93.30;;;;;;5055635;28;20025;-65
2021/03/27 16:15:44;;;;;;;4.95;1.48;;;19.80;93.30;;;;;;5070343;28;20045;-62
2021/03/27 16:18:18;;;;;;;4.45;1.20;;;19.60;93.20;;;;;;5058788;28;20023;-64
2021/03/27 16:21:07;;;;;;;5.45;1.33;;;19.60;93.40;;;;;;5073339;28;20028;-60
2021/03/27 16:23:40;;;;;;;4.30;1.50;;;19.50;93.70;;;;;;5042829;28;20326;-63
2021/03/27 16:26:30;;;;;;;4.75;1.55;;;19.50;94.00;;;;;;5070428;28;20487;-59
2021/03/27 16:29:25;;;;;;;4.05;1.52;;;19.60;93.70;;;;;;5064181;28;20379;-62
2021/03/27 16:31:56;;;;;;;3.67;1.40;;;19.60;93.50;;;;;;5054204;28;20477;-60
2021/03/27 16:34:50;;;;;;;5.18;1.70;;;19.60;93.40;;;;;;5053280;28;20029;-58
2021/03/27 16:37:28;;;;;;;6.82;1.55;;;19.60;93.40;;;;;;5062343;28;20102;-58
2021/03/27 16:40:13;;;;;;;6.30;1.55;;;19.50;93.30;;;;;;5063858;28;20357;-65
2021/03/27 16:43:03;;;;;;;6.70;1.92;;;19.60;93.00;;;;;;5073318;28;20032;-61
2021/03/27 16:46:04;;;;;;;5.20;1.60;;;19.50;92.90;;;;;;5073112;28;20024;-62
2021/03/27 16:48:50;;;;;;;6.15;1.73;;;19.50;92.90;;;;;;5071427;28;20487;-61
2021/03/27 16:51:28;;;;;;;5.85;1.50;;;19.40;92.90;;;;;;5072865;28;20056;-65
2021/03/27 16:54:06;;;;;;;4.15;1.55;;;19.40;92.90;;;;;;5072880;28;20028;-60
2021/03/27 16:57:04;;;;;;;4.22;1.50;;;19.40;92.80;;;;;;5068546;28;20477;-60
2021/03/27 16:59:44;;;;;;;8.00;1.73;;;19.40;92.80;;;;;;5081433;28;20095;-61
2021/03/27 17:02:21;;;;;;;5.63;1.48;;;19.30;92.80;;;;;;5088296;28;20498;-64
2021/03/27 17:05:27;;;;;;;5.95;1.70;;;19.30;92.80;;;;;;5085333;28;20064;-61
2021/03/27 17:08:08;;;;;;;6.38;1.50;;;19.30;92.80;;;;;;5093100;28;20028;-59
2021/03/27 17:10:37;;;;;;;5.25;1.60;;;19.20;92.80;;;;;;5077266;28;20033;-64
2021/03/27 17:13:34;;;;;;;6.18;1.85;;;19.20;92.80;;;;;;5071763;28;20029;-57
2021/03/27 17:16:30;;;;;;;7.43;1.80;;;19.20;92.80;;;;;;5061764;28;20040;-59
2021/03/27 17:19:09;;;;;;;6.72;1.48;;;19.20;92.70;;;;;;5072303;28;20390;-64
2021/03/27 17:22:01;;;;;;;9.07;1.60;;;19.20;92.80;;;;;;5056602;28;20032;-64
2021/03/27 17:24:39;;;;;;;4.43;1.40;;;19.20;92.90;;;;;;5066904;28;20545;-73
2021/03/27 17:27:18;;;;;;;6.30;1.52;;;19.30;93.10;;;;;;5068588;28;20036;-73
2021/03/27 17:29:53;;;;;;;4.88;1.42;;;19.30;93.10;;;;;;5070795;28;20032;-74
2021/03/27 17:32:25;;;;;;;5.35;1.40;;;19.30;93.30;;;;;;5071648;28;20021;-69
2021/03/27 17:35:18;;;;;;;3.78;1.30;;;19.30;93.20;;;;;;5070865;28;20027;-70
2021/03/27 17:38:08;;;;;;;8.43;1.65;;;19.40;93.20;;;;;;5071328;28;20036;-67
2021/03/27 17:41:00;;;;;;;6.03;1.75;;;19.40;93.30;;;;;;5068966;28;20459;-70
2021/03/27 17:43:56;;;;;;;4.53;1.33;;;19.40;93.40;;;;;;5063536;28;20032;-63
2021/03/27 17:46:50;;;;;;;5.97;1.50;;;19.30;93.30;;;;;;5070934;28;20027;-69
2021/03/27 17:49:34;;;;;;;5.10;1.70;;;19.30;93.70;;;;;;5038757;28;20028;-60
2021/03/27 17:52:06;;;;;;;4.70;1.40;;;19.30;93.20;;;;;;5071058;28;20063;-68
2021/03/27 17:54:43;;;;;;;4.43;1.60;;;19.40;93.30;;;;;;5070827;28;20413;-68
2021/03/27 17:57:24;;;;;;;3.40;1.15;;;19.40;93.30;;;;;;5070709;28;20029;-62
2021/03/27 17:59:54;;;;;;;3.67;1.30;;;19.40;93.20;;;;;;5071294;28;20032;-66
2021/03/27 18:02:26;;;;;;;4.97;1.02;;;19.30;93.10;;;;;;5071642;28;20028;-65
2021/03/27 18:04:57;;;;;;;8.43;2.40;;;19.30;93.00;;;;;;5071188;28;20033;-61
2021/03/27 18:07:31;;;;;;;4.20;1.48;;;19.30;93.00;;;;;;5071490;28;20521;-65
2021/03/27 18:10:05;;;;;;;5.13;1.27;;;19.30;93.20;;;;;;5070532;28;20033;-65
2021/03/27 18:12:43;;;;;;;;;;;19.30;93.50;;;;;;5071483;28;20154;-68
2021/03/27 18:15:48;;;;;;;5.60;1.33;;;19.30;93.20;;;;;;5070829;28;19999;-68
2021/03/27 18:19:07;;;;;;;5.80;1.30;;;19.30;93.10;;;;;;5054773;28;20084;-69
2021/03/27 18:22:03;;;;;;;5.70;1.30;;;19.40;93.10;;;;;;5028129;28;20417;-65
2021/03/27 18:24:44;;;;;;;5.72;1.40;;;19.30;93.10;;;;;;5070533;28;20376;-66
2021/03/27 18:27:13;;;;;;;3.70;1.20;;;19.40;93.00;;;;;;5071610;28;20020;-61
2021/03/27 18:29:56;;;;;;;7.63;1.10;;;19.30;93.10;;;;;;5075103;28;20043;-65
2021/03/27 18:32:30;;;;;;;5.80;1.50;;;19.20;93.00;;;;;;5075745;28;20380;-64
2021/03/27 18:35:03;;;;;;;5.15;1.10;;;19.20;92.90;;;;;;5073403;28;20044;-65
2021/03/27 18:37:41;;;;;;;5.55;1.48;;;19.10;92.90;;;;;;5073016;28;20476;-66
2021/03/27 18:40:25;;;;;;;4.63;1.17;;;19.10;92.90;;;;;;5081411;28;20111;-65
2021/03/27 18:42:57;;;;;;;4.75;1.23;;;19.00;92.90;;;;;;5080748;28;20111;-66
2021/03/27 18:45:28;;;;;;;4.60;1.10;;;19.00;92.90;;;;;;5075618;28;20039;-67
2021/03/27 18:48:05;;;;;;;5.10;0.90;;;19.00;92.90;;;;;;5075036;28;20036;-62
2021/03/27 18:50:37;;;;;;;7.20;1.48;;;18.90;93.00;;;;;;5074688;28;20098;-61
2021/03/27 18:53:21;;;;;;;6.55;1.25;;;18.90;92.90;;;;;;5074754;28;20016;-61
2021/03/27 18:56:07;;;;;;;4.38;1.17;;;18.90;93.00;;;;;;5074979;28;20071;-64
2021/03/27 18:58:47;;;;;;;4.40;1.23;;;18.90;93.00;;;;;;5074785;28;20031;-67
2021/03/27 19:01:27;;;;;;;5.38;1.50;;;18.80;93.00;;;;;;5086601;28;20028;-67
2021/03/27 19:04:02;;;;;;;3.72;1.10;;;18.80;93.00;;;;;;5093946;28;20016;-62
2021/03/27 19:06:28;;;;;;;4.32;1.20;;;18.80;93.10;;;;;;5078284;28;20031;-65
2021/03/27 19:09:13;;;;;;;3.45;1.33;;;18.70;93.00;;;;;;5077030;28;20283;-62
2021/03/27 19:11:44;;;;;;;4.57;1.27;;;18.70;93.10;;;;;;5084177;28;20024;-64
2021/03/27 19:14:31;;;;;;;5.15;1.25;;;18.70;93.10;;;;;;5078116;28;20019;-67
2021/03/27 19:16:59;;;;;;;5.15;1.48;;;18.70;93.10;;;;;;5070067;28;20495;-62
2021/03/27 19:19:30;;;;;;;4.35;1.27;;;18.60;93.40;;;;;;5089437;28;20525;-67
2021/03/27 19:22:24;;;;;;;3.83;1.30;;;18.60;93.10;;;;;;5076516;28;20024;-62
2021/03/27 19:25:20;;;;;;;5.60;1.58;;;18.60;93.20;;;;;;5065604;28;20028;-63
2021/03/27 19:28:07;;;;;;;3.47;1.20;;;18.50;93.20;;;;;;5074467;28;20031;-61
2021/03/27 19:30:48;;;;;;;4.93;1.30;;;18.50;93.30;;;;;;5079480;28;20020;-64
2021/03/27 19:33:34;;;;;;;3.35;1.10;;;18.50;93.20;;;;;;5088176;28;20098;-62
2021/03/27 19:36:25;;;;;;;4.22;1.33;;;18.50;93.40;;;;;;5066784;28;20032;-58
2021/03/27 19:38:53;;;;;;;4.97;1.42;;;18.50;93.50;;;;;;5083706;28;20158;-59
2021/03/27 19:41:53;;;;;;;3.00;1.17;;;18.50;93.50;;;;;;5088492;28;20492;-61
2021/03/27 19:44:28;;;;;;;3.20;1.08;;;18.50;93.60;;;;;;5075150;28;20559;-60
2021/03/27 19:46:58;;;;;;;4.07;1.35;;;18.50;93.50;;;;;;5074870;28;20086;-62
2021/03/27 19:49:46;;;;;;;4.75;1.45;;;18.50;93.80;;;;;;5074323;28;20036;-61
2021/03/27 19:52:15;;;;;;;5.03;1.42;;;18.50;93.40;;;;;;5071409;28;20023;-64
2021/03/27 19:55:05;;;;;;;3.55;1.30;;;18.50;93.50;;;;;;5071203;28;20059;-60
2021/03/27 19:57:58;;;;;;;2.33;1.02;;;18.60;93.60;;;;;;5041777;28;20479;-62
2021/03/27 20:00:47;;;;;;;3.10;1.27;;;18.60;93.50;;;;;;5080197;28;20055;-62
2021/03/27 20:03:36;;;;;;;4.43;1.40;;;18.60;93.50;;;;;;5076175;28;20016;-61
2021/03/27 20:06:25;;;;;;;5.20;1.55;;;18.60;93.50;;;;;;5082336;28;20085;-61
2021/03/27 20:09:00;;;;;;;4.03;1.40;;;18.60;93.50;;;;;;5072030;28;20036;-61
2021/03/27 20:11:32;;;;;;;4.95;1.50;;;18.70;93.60;;;;;;5065563;28;20395;-67
2021/03/27 20:14:10;;;;;;;3.88;1.40;;;18.60;93.60;;;;;;5081727;28;20443;-64
2021/03/27 20:16:45;;;;;;;3.45;1.30;;;18.60;93.40;;;;;;5067850;28;20069;-60
2021/03/27 20:19:27;;;;;;;3.17;1.40;;;18.60;93.70;;;;;;5076850;28;20024;-66
2021/03/27 20:22:06;;;;;;;3.83;1.40;;;18.50;93.60;;;;;;5082721;28;20063;-61
2021/03/27 20:24:39;;;;;;;4.78;1.30;;;18.50;93.60;;;;;;5083009;28;20012;-60
2021/03/27 20:27:35;;;;;;;4.82;1.50;;;18.50;93.60;;;;;;5076987;28;20107;-61
2021/03/27 20:30:13;;;;;;;4.32;1.50;;;18.50;93.60;;;;;;5081230;28;20048;-61
2021/03/27 20:32:50;;;;;;;3.85;1.40;;;18.50;93.70;;;;;;5073149;28;20098;-61
2021/03/27 20:35:31;;;;;;;3.78;1.55;;;18.50;93.90;;;;;;5071254;28;20041;-63
2021/03/27 20:38:42;;;;;;;4.03;1.33;;;18.30;93.80;;;;;;5076754;28;20025;-61
2021/03/27 20:41:17;;;;;;;3.95;1.63;;;18.20;94.20;;;;;;4988349;28;20030;-61
2021/03/27 20:44:20;;;;;;;4.68;1.67;;;18.10;93.80;;;;;;4992329;28;20033;-60
2021/03/27 20:47:09;;;;;;;8.95;1.40;;;18.00;94.10;;;;;;5042422;28;20033;-66
2021/03/27 20:50:01;;;;;;;3.22;1.20;;;17.90;94.20;;;;;;5080101;28;20501;-59
2021/03/27 20:52:47;;;;;;;4.43;2.15;;;17.90;94.30;;;;;;5062626;28;20032;-62
2021/03/27 20:55:28;;;;;;;4.53;1.52;;;17.80;94.20;;;;;;5073142;28;20028;-60
2021/03/27 20:58:26;;;;;;;9.10;2.20;;;17.80;94.90;;;;;;5071762;28;20032;-61
2021/03/27 21:00:55;;;;;;;6.85;1.80;;;17.80;96.60;;;;;;5077479;28;20026;-59
2021/03/27 21:03:44;;;;;;;7.53;2.35;;;17.80;96.50;;;;;;5087443;28;20055;-59
2021/03/27 21:06:30;;;;;;;10.32;2.50;;;17.80;96.40;;;;;;5091956;28;20040;-59
2021/03/27 21:09:23;;;;;;;7.82;1.83;;;17.70;96.40;;;;;;5086973;28;20035;-58
2021/03/27 21:11:57;;;;;;;5.13;1.90;;;17.70;96.20;;;;;;5052245;28;20059;-60
2021/03/27 21:15:00;;;;;;;5.60;1.73;;;17.70;96.40;;;;;;5063344;28;20021;-61
2021/03/27 21:17:39;;;;;;;5.32;1.95;;;17.60;96.20;;;;;;5083479;28;20064;-59
2021/03/27 21:20:33;;;;;;;10.88;2.10;;;17.60;96.20;;;;;;5088112;28;20028;-59
2021/03/27 21:23:07;;;;;;;5.07;1.52;;;17.50;96.10;;;;;;5092106;28;20026;-60
2021/03/27 21:25:49;;;;;;;9.27;2.00;;;17.50;96.00;;;;;;5073534;28;20029;-60
2021/03/27 21:28:26;;;;;;;6.30;1.98;;;17.50;96.00;;;;;;5073734;28;20559;-60
2021/03/27 21:31:13;;;;;;;6.50;1.65;;;17.40;96.00;;;;;;5089921;28;20032;-61
2021/03/27 21:34:07;;;;;;;5.68;1.70;;;17.40;96.00;;;;;;5076525;28;20108;-59
2021/03/27 21:36:58;;;;;;;4.85;1.77;;;17.40;96.00;;;;;;5070024;28;20032;-60
2021/03/27 21:39:45;;;;;;;4.10;1.75;;;17.30;96.00;;;;;;5082301;28;20467;-60
2021/03/27 21:42:33;;;;;;;5.70;1.85;;;17.30;96.00;;;;;;5069834;28;20053;-65
2021/03/27 21:45:11;;;;;;;5.05;2.00;;;17.30;96.00;;;;;;5051515;28;20021;-67
2021/03/27 21:47:57;;;;;;;4.90;1.48;;;17.30;96.10;;;;;;5069258;28;20411;-61
2021/03/27 21:50:34;;;;;;;5.10;1.70;;;17.20;96.00;;;;;;5068115;28;20020;-67
2021/03/27 21:53:20;;;;;;;5.15;1.65;;;17.20;96.10;;;;;;5071431;28;20480;-62
2021/03/27 21:55:58;;;;;;;5.57;1.65;;;17.20;96.10;;;;;;5070699;28;20040;-62
2021/03/27 21:58:42;;;;;;;4.40;1.63;;;17.20;96.00;;;;;;5064020;28;20083;-66
2021/03/27 22:01:20;;;;;;;5.30;1.77;;;17.10;96.10;;;;;;5060630;28;20046;-67
2021/03/27 22:04:12;;;;;;;4.30;1.90;;;17.10;96.10;;;;;;5071243;28;20025;-64
2021/03/27 22:07:05;;;;;;;4.57;1.77;;;17.00;96.20;;;;;;5067947;28;20041;-66
2021/03/27 22:09:55;;;;;;;4.93;1.70;;;17.00;96.10;;;;;;5076732;28;20032;-61
2021/03/27 22:12:27;;;;;;;4.38;1.83;;;17.00;96.20;;;;;;5066277;28;20030;-66
2021/03/27 22:14:53;;;;;;;4.00;1.73;;;17.00;96.10;;;;;;5075521;28;20043;-65
2021/03/27 22:17:31;;;;;;;5.13;2.00;;;17.00;96.10;;;;;;5071150;28;20028;-65
2021/03/27 22:20:39;;;;;;;4.40;1.75;;;16.90;95.80;;;;;;5087375;28;20541;-66
2021/03/27 22:23:32;;;;;;;4.13;1.63;;;16.90;96.10;;;;;;5053508;28;20013;-66
2021/03/27 22:26:00;;;;;;;5.82;2.10;;;16.90;96.00;;;;;;5050943;28;20472;-66
2021/03/27 22:28:58;;;;;;;3.78;1.70;;;16.80;96.10;;;;;;5063777;28;20380;-67
2021/03/27 22:31:32;;;;;;;4.90;1.90;;;16.80;96.10;;;;;;5070529;28;20036;-66
2021/03/27 22:34:02;;;;;;;;;;;16.80;96.10;;;;;;5070597;28;20052;-67
2021/03/27 22:36:57;;;;;;;6.13;1.80;;;16.80;96.40;;;;;;5070316;28;20032;-65
2021/03/27 22:39:30;;;;;;;5.00;1.90;;;16.70;96.10;;;;;;5070387;28;20028;-65
2021/03/27 22:42:09;;;;;;;5.03;1.88;;;16.70;96.10;;;;;;5070600;28;20025;-64
2021/03/27 22:44:47;;;;;;;4.03;1.60;;;16.70;96.10;;;;;;5070328;28;20405;-61
2021/03/27 22:47:39;;;;;;;5.47;1.80;;;16.70;96.00;;;;;;5058723;28;20035;-64
2021/03/27 22:50:16;;;;;;;4.13;1.60;;;16.70;96.10;;;;;;5052856;28;20115;-64
2021/03/27 22:52:48;;;;;;;4.15;1.90;;;16.70;96.30;;;;;;5070050;28;20157;-63
2021/03/27 22:55:36;;;;;;;5.85;2.00;;;16.70;96.20;;;;;;5070100;28;20033;-63
